createdAt,value
2019-02-12T10:25:50.197Z,92.83
2019-02-12T10:29:02.083Z,92.76
2019-02-12T10:31:50.455Z,92.94
2019-02-12T10:34:22.204Z,94.10
2019-02-12T10:36:54.153Z,92.78
2019-02-12T10:42:32.213Z,93.46
2019-02-12T10:45:03.482Z,92.83
2019-02-12T10:47:33.750Z,91.89
2019-02-12T10:50:04.104Z,90.88
2019-02-12T10:52:34.759Z,90.88
2019-02-12T10:55:05.225Z,90.86
2019-02-12T10:57:35.663Z,91.07
2019-02-12T11:00:09.807Z,91.39
2019-02-12T11:02:40.331Z,91.07
2019-02-12T11:05:11.863Z,90.87
2019-02-12T11:07:42.295Z,91.27
2019-02-12T11:10:13.556Z,90.15
2019-02-12T11:12:47.423Z,90.01
2019-02-12T11:15:18.883Z,89.97
2019-02-12T11:17:49.756Z,90.02
2019-02-12T11:20:20.338Z,90.13
2019-02-12T11:22:50.826Z,89.01
2019-02-12T11:25:21.229Z,86.34
2019-02-12T11:27:51.784Z,87.80
2019-02-12T11:30:23.089Z,89.19
2019-02-12T11:32:54.324Z,89.40
2019-02-12T11:35:25.259Z,88.51
2019-02-12T11:37:55.712Z,89.10
2019-02-12T11:40:27.042Z,88.67
2019-02-12T11:42:58.202Z,86.79
2019-02-12T11:45:28.738Z,85.27
2019-02-12T11:47:59.005Z,85.00
2019-02-12T11:50:29.330Z,86.61
2019-02-12T11:52:59.571Z,85.65
2019-02-12T11:55:29.859Z,85.89
2019-02-12T11:58:01.930Z,85.94
2019-02-12T12:00:38.516Z,85.44
2019-02-12T12:03:09.436Z,86.33
2019-02-12T12:05:40.001Z,85.94
2019-02-12T12:08:10.253Z,86.43
2019-02-12T12:10:41.328Z,88.10
2019-02-12T12:13:12.896Z,87.43
2019-02-12T12:15:44.023Z,89.34
2019-02-12T12:18:14.193Z,86.86
2019-02-12T12:20:44.351Z,86.34
2019-02-12T12:23:14.816Z,87.60
2019-02-12T12:25:45.068Z,88.00
2019-02-12T12:28:16.763Z,87.38
2019-02-12T12:30:47.787Z,87.72
2019-02-12T12:33:19.198Z,88.50
2019-02-12T12:35:49.648Z,85.43
2019-02-12T12:38:20.292Z,86.26
2019-02-12T12:40:50.823Z,85.10
2019-02-12T12:43:21.142Z,85.99
2019-02-12T12:45:51.493Z,85.54
2019-02-12T12:48:22.520Z,85.28
2019-02-12T12:50:52.682Z,85.50
2019-02-12T12:53:25.192Z,85.04
2019-02-12T12:55:56.102Z,85.23
2019-02-12T12:58:27.340Z,86.44
2019-02-12T13:00:57.577Z,85.27
2019-02-12T13:03:28.700Z,85.44
2019-02-12T13:06:00.479Z,83.46
2019-02-12T13:08:31.468Z,83.77
2019-02-12T13:11:02.841Z,85.83
2019-02-12T13:13:33.271Z,84.07
2019-02-12T13:16:03.652Z,84.42
2019-02-12T13:18:35.388Z,83.56
2019-02-12T13:21:05.826Z,84.56
2019-02-12T13:23:36.888Z,84.92
2019-02-12T13:26:08.282Z,83.40
2019-02-12T13:28:38.532Z,82.23
2019-02-12T13:31:10.529Z,83.10
2019-02-12T13:33:40.789Z,84.94
2019-02-12T13:36:11.725Z,83.85
2019-02-12T13:38:41.988Z,84.60
2019-02-12T13:41:12.610Z,84.34
2019-02-12T13:43:43.074Z,85.05
2019-02-12T13:46:15.066Z,83.81
2019-02-12T13:48:45.526Z,85.30
2019-02-12T13:51:15.801Z,83.77
2019-02-12T13:53:46.144Z,85.15
2019-02-12T13:56:18.897Z,85.75
2019-02-12T13:58:49.954Z,85.97
2019-02-12T14:01:20.207Z,84.22
2019-02-12T14:03:50.480Z,84.37
2019-02-12T14:06:20.892Z,85.79
2019-02-12T14:08:51.327Z,86.03
2019-02-12T14:11:24.368Z,85.41
2019-02-12T14:13:55.044Z,83.96
2019-02-12T14:16:25.489Z,83.03
2019-02-12T14:18:56.043Z,84.82
2019-02-12T14:21:26.202Z,81.41
2019-02-12T14:23:57.147Z,82.25
2019-02-12T14:26:27.372Z,80.42
2019-02-12T14:28:57.730Z,81.80
2019-02-12T14:31:28.213Z,83.09
2019-02-12T14:34:00.318Z,83.63
2019-02-12T14:36:30.834Z,82.98
2019-02-12T14:39:02.260Z,82.51
2019-02-12T14:41:33.199Z,82.00
2019-02-12T14:44:03.604Z,83.60
2019-02-12T14:46:34.770Z,80.87
2019-02-12T14:49:06.008Z,83.45
2019-02-12T14:51:36.559Z,83.50
2019-02-12T14:54:07.407Z,82.51
2019-02-12T14:56:38.026Z,81.63
2019-02-12T14:59:09.614Z,83.04
2019-02-12T15:01:39.913Z,83.60
2019-02-12T15:04:11.051Z,83.42
2019-02-12T15:06:43.039Z,84.27
2019-02-12T15:09:13.393Z,81.98
2019-02-12T15:11:44.480Z,80.58
2019-02-12T15:14:14.598Z,80.86
2019-02-12T15:16:45.890Z,80.99
2019-02-12T15:19:16.087Z,80.20
2019-02-12T15:21:46.443Z,81.44
2019-02-12T15:24:16.857Z,81.30
2019-02-12T15:26:49.505Z,81.70
2019-02-12T15:29:21.418Z,79.98
2019-02-12T15:31:52.691Z,80.04
2019-02-12T15:34:23.168Z,79.50
2019-02-12T15:36:55.548Z,80.47
2019-02-12T15:39:27.042Z,80.11
2019-02-12T15:41:57.247Z,81.38
2019-02-12T15:44:29.330Z,80.08
2019-02-12T15:46:59.593Z,80.08
2019-02-12T15:49:30.398Z,81.38
2019-02-12T15:52:01.786Z,81.63
2019-02-12T15:54:32.288Z,81.91
2019-02-12T15:57:03.610Z,80.98
2019-02-12T15:59:33.947Z,82.03
2019-02-12T16:02:04.564Z,81.30
2019-02-12T16:04:35.118Z,81.50
2019-02-12T16:07:05.639Z,81.49
2019-02-12T16:09:36.898Z,82.29
2019-02-12T16:12:07.202Z,82.68
2019-02-12T16:14:37.459Z,83.32
2019-02-12T16:17:08.674Z,82.19
2019-02-12T16:19:39.208Z,83.72
2019-02-12T16:22:09.587Z,83.86
2019-02-12T16:24:41.073Z,83.99
2019-02-12T16:27:11.956Z,83.88
2019-02-12T16:29:42.395Z,84.62
2019-02-12T16:32:13.682Z,85.56
2019-02-12T16:34:44.111Z,85.68
2019-02-12T16:37:14.688Z,85.79
2019-02-12T16:39:48.333Z,86.19
2019-02-12T16:42:18.595Z,86.56
2019-02-12T16:44:49.813Z,86.22
2019-02-12T16:47:21.394Z,86.14
2019-02-12T16:49:52.386Z,84.86
2019-02-12T16:52:22.824Z,85.48
2019-02-12T16:54:53.132Z,85.62
2019-02-12T16:57:25.614Z,86.11
2019-02-12T16:59:55.876Z,86.45
2019-02-12T17:02:26.451Z,87.08
2019-02-12T17:04:57.388Z,87.08
2019-02-12T17:07:28.574Z,87.85
2019-02-12T17:09:59.676Z,88.21
2019-02-12T17:12:29.940Z,87.98
2019-02-12T17:15:01.951Z,87.59
2019-02-12T17:17:32.215Z,86.83
2019-02-12T17:20:03.995Z,87.50
2019-02-12T17:22:34.449Z,87.15
2019-02-12T17:25:06.845Z,87.54
2019-02-12T17:27:37.865Z,88.43
2019-02-12T17:30:09.911Z,88.53
2019-02-12T17:32:40.853Z,88.33
2019-02-12T17:35:12.024Z,88.50
2019-02-12T17:37:42.467Z,88.83
2019-02-12T17:40:13.404Z,88.89
2019-02-12T17:42:43.773Z,89.44
2019-02-12T17:45:14.584Z,89.86
2019-02-12T17:47:46.998Z,90.22
2019-02-12T17:50:18.523Z,90.38
2019-02-12T17:52:49.045Z,90.97
2019-02-12T17:55:19.320Z,91.20
2019-02-12T17:57:51.809Z,91.47
2019-02-12T18:00:24.940Z,91.80
2019-02-12T18:02:55.271Z,91.95
2019-02-12T18:05:26.661Z,91.86
2019-02-12T18:07:59.728Z,92.11
2019-02-12T18:10:30.201Z,92.47
2019-02-12T18:13:00.723Z,92.80
2019-02-12T18:15:32.115Z,93.25
2019-02-12T18:18:02.400Z,93.62
2019-02-12T18:20:32.603Z,94.09
2019-02-12T18:23:04.612Z,94.10
2019-02-12T18:25:36.188Z,94.31
2019-02-12T18:28:06.598Z,94.40
2019-02-12T18:30:37.421Z,94.47
2019-02-12T18:33:08.223Z,94.55
2019-02-12T18:35:39.220Z,94.70
2019-02-12T18:38:09.478Z,94.52
2019-02-12T18:40:40.710Z,94.40
2019-02-12T18:43:12.138Z,94.92
2019-02-12T18:45:43.700Z,95.10
2019-02-12T18:48:15.213Z,95.28
2019-02-12T18:50:46.563Z,95.52
2019-02-12T18:53:17.176Z,95.80
2019-02-12T18:55:48.442Z,95.95
2019-02-12T18:58:18.811Z,96.01
2019-02-12T19:00:50.037Z,96.09
2019-02-12T19:03:22.009Z,95.90
2019-02-12T19:05:52.632Z,95.94
2019-02-12T19:08:23.080Z,96.19
2019-02-12T19:10:54.231Z,96.48
2019-02-12T19:16:04.477Z,96.36
2019-02-12T19:18:34.792Z,96.19
2019-02-12T19:21:06.079Z,96.59
2019-02-12T19:23:37.457Z,96.29
2019-02-12T19:26:07.742Z,96.30
2019-02-12T19:28:38.184Z,96.61
2019-02-12T19:31:09.487Z,96.90
2019-02-12T19:33:40.531Z,97.10
2019-02-12T19:36:10.893Z,97.36
2019-02-12T19:38:42.126Z,97.70
2019-02-12T19:41:12.555Z,97.75
2019-02-12T19:43:43.214Z,97.94
2019-02-12T19:46:14.594Z,98.10
2019-02-12T19:48:44.950Z,98.29
2019-02-12T19:51:17.075Z,98.33
2019-02-12T19:53:48.386Z,98.58
2019-02-12T19:56:18.799Z,98.62
2019-02-12T19:58:50.101Z,98.75
2019-02-12T20:01:22.431Z,99.24
2019-02-12T20:03:58.174Z,99.41
2019-02-12T20:06:30.273Z,99.76
2019-02-12T20:09:00.905Z,99.81
2019-02-12T20:11:31.956Z,99.98
2019-02-12T20:14:03.254Z,100.00
2019-02-12T20:16:34.427Z,100.00
2019-02-12T20:19:05.794Z,100.00
2019-02-12T20:21:37.486Z,100.00
2019-02-12T20:24:08.860Z,100.00
2019-02-12T20:26:40.214Z,100.00
2019-02-12T20:29:11.408Z,100.00
2019-02-12T20:31:42.747Z,100.00
2019-02-12T20:34:14.484Z,100.00
2019-02-12T20:36:45.150Z,100.00
2019-02-12T20:39:15.936Z,100.00
2019-02-12T20:41:47.392Z,100.00
2019-02-12T20:44:18.769Z,100.00
2019-02-12T20:46:49.278Z,100.00
2019-02-12T20:49:19.819Z,100.00
2019-02-12T20:51:50.240Z,100.00
2019-02-12T20:54:22.515Z,100.00
2019-02-12T20:56:53.114Z,100.00
2019-02-12T20:59:24.770Z,100.00
2019-02-12T21:01:55.103Z,100.00
2019-02-12T21:04:26.280Z,100.00
2019-02-12T21:06:57.619Z,100.00
2019-02-12T21:09:28.111Z,100.00
2019-02-12T21:11:58.503Z,100.00
2019-02-12T21:14:29.824Z,100.00
2019-02-12T21:17:00.264Z,100.00
2019-02-12T21:19:32.413Z,100.00
2019-02-12T21:22:02.870Z,100.00
2019-02-12T21:24:33.267Z,100.00
2019-02-12T21:27:03.689Z,100.00
2019-02-12T21:29:34.060Z,100.00
2019-02-12T21:32:05.072Z,100.00
2019-02-12T21:34:35.711Z,100.00
2019-02-12T21:37:05.963Z,100.00
2019-02-12T21:39:37.001Z,100.00
2019-02-12T21:42:07.941Z,100.00
2019-02-12T21:44:39.024Z,100.00
2019-02-12T21:47:09.330Z,100.00
2019-02-12T21:49:39.617Z,100.00
2019-02-12T21:52:10.224Z,100.00
2019-02-12T21:54:41.423Z,100.00
2019-02-12T21:57:11.684Z,100.00
2019-02-12T21:59:42.868Z,100.00
2019-02-12T22:02:13.906Z,100.00
2019-02-12T22:04:44.943Z,100.00
2019-02-12T22:07:15.243Z,100.00
2019-02-12T22:09:45.617Z,100.00
2019-02-12T22:12:18.606Z,100.00
2019-02-12T22:14:50.001Z,100.00
2019-02-12T22:17:20.445Z,100.00
2019-02-12T22:19:50.643Z,100.00
2019-02-12T22:22:21.733Z,100.00
2019-02-12T22:24:53.511Z,100.00
2019-02-12T22:27:23.753Z,100.00
2019-02-12T22:29:54.825Z,100.00
2019-02-12T22:32:26.005Z,100.00
2019-02-12T22:34:56.151Z,100.00
2019-02-12T22:37:26.369Z,100.00
2019-02-12T22:39:57.114Z,100.00
2019-02-12T22:42:27.699Z,100.00
2019-02-12T22:44:57.900Z,100.00
2019-02-12T22:47:29.203Z,100.00
2019-02-12T22:49:59.489Z,100.00
2019-02-12T22:52:31.432Z,100.00
2019-02-12T22:55:02.472Z,100.00
2019-02-12T22:57:33.778Z,100.00
2019-02-12T23:00:04.336Z,100.00
2019-02-12T23:02:34.712Z,100.00
2019-02-12T23:05:05.411Z,100.00
2019-02-12T23:07:37.483Z,100.00
2019-02-12T23:10:09.326Z,100.00
2019-02-12T23:12:41.277Z,100.00
2019-02-12T23:15:11.887Z,100.00
2019-02-12T23:17:42.161Z,100.00
2019-02-12T23:20:12.447Z,100.00
2019-02-12T23:22:43.386Z,100.00
2019-02-12T23:25:13.851Z,100.00
2019-02-12T23:27:44.181Z,100.00
2019-02-12T23:30:14.492Z,100.00
2019-02-12T23:32:44.665Z,100.00
2019-02-12T23:35:15.655Z,100.00
2019-02-12T23:37:46.682Z,100.00
2019-02-12T23:40:16.923Z,100.00
2019-02-12T23:42:47.311Z,100.00
2019-02-12T23:45:17.769Z,100.00
2019-02-12T23:47:49.376Z,100.00
2019-02-12T23:50:19.511Z,100.00
2019-02-12T23:52:49.811Z,100.00
2019-02-12T23:55:20.777Z,100.00
2019-02-12T23:57:51.225Z,100.00
